createdAt,value
2022-10-14T00:01:15.562Z,26.31
2022-10-14T00:03:43.087Z,25.94
2022-10-14T00:06:13.166Z,26.44
2022-10-14T00:08:40.468Z,26.72
2022-10-14T00:11:17.342Z,26.86
2022-10-14T00:13:44.040Z,26.42
2022-10-14T00:16:23.204Z,25.82
2022-10-14T00:18:50.756Z,25.92
2022-10-14T00:21:17.954Z,25.93
2022-10-14T00:23:45.324Z,25.84
2022-10-14T00:26:27.005Z,26.00
2022-10-14T00:28:54.187Z,26.12
2022-10-14T00:31:21.619Z,26.10
2022-10-14T00:33:48.899Z,26.74
2022-10-14T00:36:18.375Z,26.76
2022-10-14T00:38:45.719Z,27.05
2022-10-14T00:41:16.413Z,26.70
2022-10-14T00:44:08.452Z,26.62
2022-10-14T00:46:37.753Z,26.68
2022-10-14T00:49:09.126Z,27.10
2022-10-14T00:51:37.024Z,27.21
2022-10-14T00:54:04.572Z,27.17
2022-10-14T00:56:32.143Z,26.90
2022-10-14T00:59:02.231Z,27.02
2022-10-14T01:01:28.886Z,26.61
2022-10-14T01:03:55.617Z,26.64
2022-10-14T01:07:02.255Z,26.87
2022-10-14T01:09:36.069Z,26.68
2022-10-14T01:12:27.917Z,26.82
2022-10-14T01:15:04.930Z,26.70
2022-10-14T01:17:53.434Z,27.00
2022-10-14T01:20:28.926Z,26.88
2022-10-14T01:23:19.817Z,26.75
2022-10-14T01:26:17.535Z,26.79
2022-10-14T01:28:55.805Z,27.09
2022-10-14T01:31:28.167Z,27.31
2022-10-14T01:33:58.322Z,27.33
2022-10-14T01:36:33.869Z,27.18
2022-10-14T01:39:17.830Z,27.09
2022-10-14T01:42:17.418Z,27.09
2022-10-14T01:44:53.297Z,27.24
2022-10-14T01:47:21.880Z,26.86
2022-10-14T01:49:57.307Z,26.92
2022-10-14T01:52:28.465Z,27.07
2022-10-14T01:54:59.959Z,27.14
2022-10-14T01:57:29.645Z,26.98
2022-10-14T01:59:58.205Z,26.73
2022-10-14T02:02:25.702Z,26.65
2022-10-14T02:04:52.417Z,26.73
2022-10-14T02:07:34.439Z,26.67
2022-10-14T02:10:06.990Z,26.76
2022-10-14T02:12:45.714Z,26.66
2022-10-14T02:15:33.410Z,27.01
2022-10-14T02:18:09.881Z,26.93
2022-10-14T02:20:42.422Z,27.02
2022-10-14T02:23:39.562Z,27.19
2022-10-14T02:26:08.184Z,27.26
2022-10-14T02:28:37.094Z,27.14
2022-10-14T02:31:08.115Z,27.03
2022-10-14T02:33:40.589Z,27.30
2022-10-14T02:36:11.484Z,27.38
2022-10-14T02:38:40.269Z,27.29
2022-10-14T02:41:14.462Z,27.31
2022-10-14T02:43:41.032Z,27.10
2022-10-14T02:46:08.337Z,27.41
2022-10-14T02:48:34.965Z,27.21
2022-10-14T02:51:02.857Z,27.16
2022-10-14T02:53:30.627Z,27.13
2022-10-14T02:55:58.441Z,27.31
2022-10-14T02:58:25.594Z,27.35
2022-10-14T03:00:52.794Z,27.31
2022-10-14T03:03:20.182Z,27.30
2022-10-14T03:05:47.027Z,26.91
2022-10-14T03:08:15.359Z,27.28
2022-10-14T03:10:46.337Z,27.18
2022-10-14T03:13:12.869Z,27.31
2022-10-14T03:15:42.980Z,27.23
2022-10-14T03:18:10.987Z,27.28
2022-10-14T03:20:45.037Z,27.46
2022-10-14T03:23:14.563Z,27.28
2022-10-14T03:25:45.412Z,27.28
2022-10-14T03:28:18.162Z,26.85
2022-10-14T03:31:01.827Z,26.79
2022-10-14T03:33:41.802Z,26.81
2022-10-14T03:36:12.671Z,27.02
2022-10-14T03:38:45.667Z,27.11
2022-10-14T03:41:22.208Z,27.16
2022-10-14T03:43:48.841Z,27.28
2022-10-14T03:46:16.761Z,27.03
2022-10-14T03:48:43.434Z,27.04
2022-10-14T03:51:10.115Z,26.93
2022-10-14T03:53:36.986Z,26.88
2022-10-14T03:56:04.849Z,26.87
2022-10-14T03:58:32.638Z,26.95
2022-10-14T04:01:04.550Z,26.74
2022-10-14T04:03:51.935Z,27.11
2022-10-14T04:06:18.503Z,26.95
2022-10-14T04:08:45.118Z,26.85
2022-10-14T04:11:21.166Z,26.87
2022-10-14T04:13:49.794Z,27.08
2022-10-14T04:16:16.384Z,27.02
2022-10-14T04:18:58.459Z,27.12
2022-10-14T04:21:25.267Z,26.91
2022-10-14T04:23:52.896Z,26.71
2022-10-14T04:26:31.235Z,26.62
2022-10-14T04:28:58.442Z,26.25
2022-10-14T04:31:33.869Z,26.59
2022-10-14T04:34:02.738Z,26.88
2022-10-14T04:36:34.919Z,26.76
2022-10-14T04:39:03.645Z,27.02
2022-10-14T04:41:30.232Z,26.95
2022-10-14T04:44:00.320Z,26.92
2022-10-14T04:46:32.559Z,27.13
2022-10-14T04:49:00.054Z,27.04
2022-10-14T04:51:31.799Z,27.28
2022-10-14T04:54:24.948Z,27.04
2022-10-14T04:56:55.570Z,26.48
2022-10-14T04:59:22.345Z,26.65
2022-10-14T05:01:57.586Z,26.40
2022-10-14T05:04:32.662Z,26.48
2022-10-14T05:07:00.567Z,26.52
2022-10-14T05:09:28.241Z,26.96
2022-10-14T05:11:55.070Z,26.97
2022-10-14T05:14:29.733Z,27.10
2022-10-14T05:17:08.045Z,27.14
2022-10-14T05:19:35.275Z,26.83
2022-10-14T05:22:01.949Z,26.04
2022-10-14T05:24:36.316Z,26.49
2022-10-14T05:27:03.430Z,26.28
2022-10-14T05:29:30.992Z,26.74
2022-10-14T05:31:58.993Z,26.57
2022-10-14T05:34:37.384Z,26.58
2022-10-14T05:37:07.072Z,26.18
2022-10-14T05:39:41.086Z,25.97
2022-10-14T05:42:07.811Z,26.01
2022-10-14T05:44:35.073Z,26.23
2022-10-14T05:47:02.843Z,25.83
2022-10-14T05:49:29.443Z,26.10
2022-10-14T05:51:57.915Z,26.16
2022-10-14T05:54:24.883Z,26.17
2022-10-14T05:56:54.067Z,25.76
2022-10-14T05:59:23.014Z,25.73
2022-10-14T06:01:49.529Z,25.76
2022-10-14T06:04:20.393Z,26.15
2022-10-14T06:06:47.035Z,25.70
2022-10-14T06:09:15.296Z,25.68
2022-10-14T06:11:42.315Z,25.86
2022-10-14T06:14:09.302Z,25.80
2022-10-14T06:16:36.275Z,26.05
2022-10-14T06:19:05.598Z,26.21
2022-10-14T06:21:32.565Z,26.18
2022-10-14T06:23:59.340Z,26.12
2022-10-14T06:26:26.004Z,26.06
2022-10-14T06:28:52.586Z,26.40
2022-10-14T06:31:19.334Z,26.26
2022-10-14T06:33:45.906Z,26.42
2022-10-14T06:36:12.850Z,26.80
2022-10-14T06:38:40.409Z,26.42
2022-10-14T06:41:07.009Z,26.10
2022-10-14T06:43:35.526Z,26.45
2022-10-14T06:46:03.581Z,26.63
2022-10-14T06:48:30.209Z,26.85
2022-10-14T06:51:01.096Z,26.85
2022-10-14T06:53:28.707Z,26.91
2022-10-14T06:56:03.720Z,26.88
2022-10-14T06:58:31.228Z,27.23
2022-10-14T07:01:03.054Z,27.14
2022-10-14T07:03:30.422Z,26.90
2022-10-14T07:05:57.126Z,26.98
2022-10-14T07:08:23.991Z,27.07
2022-10-14T07:10:50.530Z,26.88
2022-10-14T07:13:17.046Z,27.00
2022-10-14T07:15:47.952Z,27.45
2022-10-14T07:18:14.779Z,27.28
2022-10-14T07:20:41.452Z,26.93
2022-10-14T07:23:08.008Z,27.04
2022-10-14T07:25:34.539Z,26.55
2022-10-14T07:28:01.201Z,26.67
2022-10-14T07:30:27.739Z,26.39
2022-10-14T07:32:55.210Z,27.17
2022-10-14T07:35:21.970Z,27.16
2022-10-14T07:37:50.400Z,27.01
2022-10-14T07:40:17.157Z,26.79
2022-10-14T07:42:43.657Z,27.06
2022-10-14T07:45:15.918Z,27.23
2022-10-14T07:47:43.849Z,27.92
2022-10-14T07:50:11.494Z,28.52
2022-10-14T07:52:38.532Z,29.40
2022-10-14T07:55:06.050Z,30.73
2022-10-14T07:57:33.221Z,31.95
2022-10-14T08:00:00.292Z,32.65
2022-10-14T08:02:26.885Z,33.21
2022-10-14T08:05:04.160Z,33.62
2022-10-14T08:07:39.900Z,32.87
2022-10-14T08:10:07.035Z,32.18
2022-10-14T08:12:33.731Z,32.07
2022-10-14T08:15:00.382Z,31.62
2022-10-14T08:17:26.956Z,31.08
2022-10-14T08:19:54.138Z,30.79
2022-10-14T08:22:20.943Z,31.19
2022-10-14T08:24:50.033Z,32.10
2022-10-14T08:27:17.938Z,32.73
2022-10-14T08:29:44.430Z,33.07
2022-10-14T08:32:10.928Z,32.54
2022-10-14T08:34:37.470Z,32.55
2022-10-14T08:37:04.017Z,33.07
2022-10-14T08:39:30.577Z,33.87
2022-10-14T08:42:19.273Z,34.43
2022-10-14T08:44:53.341Z,34.97
2022-10-14T08:47:35.318Z,34.50
2022-10-14T08:50:07.474Z,34.55
2022-10-14T08:52:58.998Z,34.92
2022-10-14T08:55:43.373Z,35.46
2022-10-14T08:58:31.758Z,36.07
2022-10-14T09:01:04.257Z,36.81
2022-10-14T09:03:34.707Z,36.56
2022-10-14T09:06:05.691Z,35.67
2022-10-14T09:08:45.336Z,34.75
2022-10-14T09:11:18.414Z,34.91
2022-10-14T09:13:48.670Z,34.50
2022-10-14T09:16:49.257Z,34.62
2022-10-14T09:19:53.702Z,33.28
2022-10-14T09:22:20.808Z,33.46
2022-10-14T09:24:48.451Z,33.03
2022-10-14T09:27:22.091Z,32.55
2022-10-14T09:30:00.415Z,32.87
2022-10-14T09:32:34.606Z,31.84
2022-10-14T09:35:02.685Z,32.53
2022-10-14T09:37:34.471Z,32.05
2022-10-14T09:40:08.637Z,31.53
2022-10-14T09:43:02.981Z,31.53
2022-10-14T09:45:46.074Z,31.62
2022-10-14T09:48:18.017Z,31.48
2022-10-14T09:50:51.641Z,30.93
2022-10-14T09:53:31.575Z,31.22
2022-10-14T09:56:01.254Z,31.09
2022-10-14T09:58:53.560Z,30.47
2022-10-14T10:01:22.502Z,30.68
2022-10-14T10:03:50.653Z,30.66
2022-10-14T10:06:21.146Z,30.19
2022-10-14T10:08:53.539Z,30.18
2022-10-14T10:11:33.677Z,31.09
2022-10-14T10:14:21.224Z,31.31
2022-10-14T10:19:29.694Z,31.50
2022-10-14T10:22:16.925Z,31.09
2022-10-14T10:24:45.022Z,29.76
2022-10-14T10:27:29.275Z,29.75
2022-10-14T10:29:56.163Z,29.55
2022-10-14T10:32:42.429Z,30.06
2022-10-14T10:35:48.002Z,30.37
2022-10-14T10:38:53.090Z,30.70
2022-10-14T10:41:44.306Z,29.69
2022-10-14T10:44:19.698Z,29.89
2022-10-14T10:46:52.269Z,29.92
2022-10-14T10:49:50.378Z,29.24
2022-10-14T10:52:41.068Z,29.60
2022-10-14T10:55:26.081Z,29.51
2022-10-14T10:58:27.865Z,29.42
2022-10-14T11:01:13.337Z,28.46
2022-10-14T11:04:21.402Z,28.89
2022-10-14T11:07:25.348Z,28.66
2022-10-14T11:10:22.405Z,28.72
2022-10-14T11:13:36.340Z,29.57
2022-10-14T11:16:07.519Z,29.69
2022-10-14T11:18:56.380Z,29.82
2022-10-14T11:21:35.336Z,30.03
2022-10-14T11:24:32.834Z,30.10
2022-10-14T11:27:14.417Z,30.23
2022-10-14T11:30:10.276Z,29.71
2022-10-14T11:32:51.505Z,29.68
2022-10-14T11:35:24.972Z,30.15
2022-10-14T11:38:10.974Z,30.17
2022-10-14T11:40:59.339Z,30.66
2022-10-14T11:43:43.954Z,31.46
2022-10-14T11:46:14.529Z,30.80
2022-10-14T11:49:01.487Z,30.50
2022-10-14T11:51:36.360Z,30.16
2022-10-14T11:54:14.869Z,30.45
2022-10-14T11:56:46.460Z,30.86
2022-10-14T11:59:37.777Z,30.96
2022-10-14T12:02:17.846Z,30.74
2022-10-14T12:04:49.806Z,31.09
2022-10-14T12:07:26.896Z,31.74
2022-10-14T12:10:02.591Z,31.71
2022-10-14T12:12:30.636Z,32.25
2022-10-14T12:15:05.797Z,32.47
2022-10-14T12:17:38.650Z,32.20
2022-10-14T12:20:14.256Z,32.39
2022-10-14T12:22:41.226Z,31.56
2022-10-14T12:25:17.590Z,30.62
2022-10-14T12:27:44.643Z,31.43
2022-10-14T12:30:34.897Z,31.64
2022-10-14T12:33:05.773Z,31.87
2022-10-14T12:35:52.775Z,31.82
2022-10-14T12:38:21.322Z,32.05
2022-10-14T12:40:49.157Z,31.95
2022-10-14T12:43:21.493Z,31.55
2022-10-14T12:46:01.705Z,31.94
2022-10-14T12:48:36.014Z,32.29
2022-10-14T12:51:21.912Z,31.81
2022-10-14T12:53:54.259Z,31.72
2022-10-14T12:56:33.302Z,31.60
2022-10-14T12:59:02.759Z,31.46
2022-10-14T13:01:33.774Z,30.70
2022-10-14T13:04:07.340Z,30.66
2022-10-14T13:06:42.269Z,31.26
2022-10-14T13:09:11.603Z,30.04
2022-10-14T13:11:53.485Z,30.46
2022-10-14T13:14:27.355Z,30.13
2022-10-14T13:17:02.607Z,29.87
2022-10-14T13:19:35.088Z,30.10
2022-10-14T13:22:22.808Z,30.10
2022-10-14T13:24:49.351Z,30.16
2022-10-14T13:27:30.024Z,30.29
2022-10-14T13:30:02.692Z,30.06
2022-10-14T13:32:43.840Z,29.60
2022-10-14T13:35:22.684Z,29.23
2022-10-14T13:38:01.983Z,29.87
2022-10-14T13:40:34.824Z,29.81
2022-10-14T13:43:08.496Z,29.88
2022-10-14T13:45:42.187Z,29.84
2022-10-14T13:48:19.805Z,29.95
2022-10-14T13:50:50.291Z,28.76
2022-10-14T13:53:19.266Z,28.78
2022-10-14T13:55:54.509Z,28.76
2022-10-14T13:58:23.695Z,29.51
2022-10-14T14:00:59.230Z,30.42
2022-10-14T14:03:30.918Z,30.10
2022-10-14T14:05:59.143Z,29.73
2022-10-14T14:08:39.897Z,29.57
2022-10-14T14:11:16.693Z,28.69
2022-10-14T14:13:53.396Z,28.61
2022-10-14T14:19:38.020Z,29.75
2022-10-14T14:22:30.464Z,29.98
2022-10-14T14:25:34.051Z,29.59
2022-10-14T14:28:13.874Z,29.05
2022-10-14T14:30:50.673Z,28.71
2022-10-14T14:33:35.560Z,28.35
2022-10-14T14:36:04.425Z,28.80
2022-10-14T14:38:34.956Z,28.35
2022-10-14T14:41:16.603Z,28.26
2022-10-14T14:43:53.306Z,28.19
2022-10-14T14:46:34.680Z,27.79
2022-10-14T14:49:02.665Z,28.29
2022-10-14T14:51:35.491Z,28.22
2022-10-14T14:54:02.434Z,28.07
2022-10-14T14:56:43.678Z,27.75
2022-10-14T14:59:19.772Z,28.32
2022-10-14T15:01:46.426Z,28.30
2022-10-14T15:04:25.267Z,28.89
2022-10-14T15:06:59.294Z,29.12
2022-10-14T15:10:05.838Z,29.36
2022-10-14T15:12:39.233Z,29.49
2022-10-14T15:15:26.718Z,28.81
2022-10-14T15:18:07.518Z,28.38
2022-10-14T15:20:36.759Z,28.58
2022-10-14T15:23:42.669Z,28.19
2022-10-14T15:26:28.010Z,28.88
2022-10-14T15:32:12.903Z,28.40
2022-10-14T15:34:40.431Z,28.90
2022-10-14T15:37:12.981Z,28.86
2022-10-14T15:39:39.515Z,28.97
2022-10-14T15:42:11.903Z,28.47
2022-10-14T15:44:38.605Z,27.68
2022-10-14T15:47:21.177Z,27.97
2022-10-14T15:49:47.846Z,28.44
2022-10-14T15:52:16.525Z,28.18
2022-10-14T15:54:45.737Z,28.54
2022-10-14T15:57:16.670Z,27.88
2022-10-14T15:59:47.707Z,28.42
2022-10-14T16:02:27.304Z,27.33
2022-10-14T16:05:18.831Z,27.54
2022-10-14T16:07:41.218Z,27.04
2022-10-14T16:10:11.430Z,27.84
2022-10-14T16:12:38.014Z,27.93
2022-10-14T16:15:19.588Z,27.71
2022-10-14T16:17:48.769Z,27.58
2022-10-14T16:20:18.500Z,27.21
2022-10-14T16:22:45.066Z,27.35
2022-10-14T16:25:20.043Z,27.06
2022-10-14T16:27:46.623Z,26.92
2022-10-14T16:30:13.706Z,26.76
2022-10-14T16:32:40.319Z,27.37
2022-10-14T16:35:09.424Z,27.25
2022-10-14T16:37:39.052Z,27.16
2022-10-14T16:40:06.925Z,26.69
2022-10-14T16:42:33.477Z,27.04
2022-10-14T16:45:00.392Z,27.60
2022-10-14T16:47:28.182Z,26.91
2022-10-14T16:49:54.993Z,27.22
2022-10-14T16:52:21.928Z,27.30
2022-10-14T16:54:48.833Z,26.77
2022-10-14T16:57:15.618Z,26.55
2022-10-14T16:59:42.238Z,27.25
2022-10-14T17:02:14.700Z,26.81
2022-10-14T17:04:42.096Z,27.04
2022-10-14T17:07:09.987Z,26.44
2022-10-14T17:09:36.949Z,26.33
2022-10-14T17:12:08.035Z,26.88
2022-10-14T17:14:37.839Z,26.90
2022-10-14T17:17:04.425Z,26.88
2022-10-14T17:19:31.111Z,27.35
2022-10-14T17:21:57.662Z,27.17
2022-10-14T17:24:24.298Z,27.68
2022-10-14T17:26:53.051Z,27.50
2022-10-14T17:29:20.727Z,27.10
2022-10-14T17:31:49.861Z,27.07
2022-10-14T17:34:16.506Z,27.16
2022-10-14T17:36:43.081Z,27.33
2022-10-14T17:39:16.408Z,26.77
2022-10-14T17:41:48.008Z,26.39
2022-10-14T17:44:14.675Z,26.87
2022-10-14T17:46:41.329Z,26.83
2022-10-14T17:49:10.804Z,27.17
2022-10-14T17:51:38.233Z,26.88
2022-10-14T17:54:07.582Z,26.79
2022-10-14T17:56:36.444Z,26.33
2022-10-14T17:59:10.364Z,26.17
2022-10-14T18:01:37.908Z,26.75
2022-10-14T18:04:17.328Z,26.43
2022-10-14T18:06:45.256Z,26.65
2022-10-14T18:09:12.505Z,26.62
2022-10-14T18:12:07.781Z,26.84
2022-10-14T18:14:30.071Z,26.96
2022-10-14T18:16:56.647Z,26.61
2022-10-14T18:19:23.208Z,26.87
2022-10-14T18:21:51.532Z,27.52
2022-10-14T18:24:18.134Z,27.91
2022-10-14T18:26:44.675Z,27.91
2022-10-14T18:29:11.274Z,27.46
2022-10-14T18:31:39.222Z,27.80
2022-10-14T18:34:07.693Z,27.42
2022-10-14T18:36:34.329Z,27.77
2022-10-14T18:39:04.354Z,27.65
2022-10-14T18:41:31.162Z,27.95
2022-10-14T18:43:58.233Z,28.08
2022-10-14T18:46:27.499Z,28.36
2022-10-14T18:48:55.742Z,28.40
2022-10-14T18:51:28.924Z,28.16
2022-10-14T18:54:01.854Z,27.74
2022-10-14T18:56:31.677Z,27.95
2022-10-14T18:59:01.545Z,27.95
2022-10-14T19:01:29.330Z,28.13
2022-10-14T19:03:56.552Z,28.21
2022-10-14T19:06:23.630Z,28.25
2022-10-14T19:08:50.992Z,28.37
2022-10-14T19:11:22.613Z,28.40
2022-10-14T19:13:51.875Z,27.78
2022-10-14T19:16:19.622Z,27.92
2022-10-14T19:18:46.840Z,27.76
2022-10-14T19:21:15.869Z,27.71
2022-10-14T19:23:43.732Z,27.71
2022-10-14T19:26:14.413Z,27.65
2022-10-14T19:28:41.918Z,27.78
2022-10-14T19:31:14.783Z,27.87
2022-10-14T19:33:44.034Z,27.45
2022-10-14T19:36:17.381Z,27.49
2022-10-14T19:38:51.274Z,27.18
2022-10-14T19:41:18.817Z,27.41
2022-10-14T19:43:45.690Z,27.49
2022-10-14T19:46:13.942Z,27.31
2022-10-14T19:48:41.018Z,26.57
2022-10-14T19:51:09.995Z,26.75
2022-10-14T19:53:38.482Z,26.17
2022-10-14T19:56:10.754Z,26.74
2022-10-14T19:58:40.928Z,26.52
2022-10-14T20:01:17.545Z,26.52
2022-10-14T20:03:44.464Z,26.21
2022-10-14T20:06:12.785Z,26.48
2022-10-14T20:08:40.034Z,26.54
2022-10-14T20:11:08.971Z,26.98
2022-10-14T20:13:37.530Z,26.61
2022-10-14T20:16:06.314Z,27.02
2022-10-14T20:18:33.193Z,26.70
2022-10-14T20:21:05.240Z,26.27
2022-10-14T20:23:34.998Z,26.89
2022-10-14T20:26:03.908Z,26.87
2022-10-14T20:28:30.611Z,26.74
2022-10-14T20:30:57.497Z,26.34
2022-10-14T20:33:24.618Z,25.88
2022-10-14T20:36:12.012Z,26.64
2022-10-14T20:38:39.229Z,27.06
2022-10-14T20:41:14.159Z,27.10
2022-10-14T20:43:41.912Z,27.23
2022-10-14T20:46:08.941Z,26.87
2022-10-14T20:48:37.298Z,26.90
2022-10-14T20:51:09.677Z,26.90
2022-10-14T20:53:36.483Z,27.22
2022-10-14T20:56:08.430Z,27.43
2022-10-14T20:58:35.386Z,27.43
2022-10-14T21:01:07.627Z,26.93
2022-10-14T21:03:34.540Z,26.79
2022-10-14T21:06:03.194Z,26.45
2022-10-14T21:08:30.067Z,26.90
2022-10-14T21:11:01.114Z,27.22
2022-10-14T21:13:28.735Z,27.16
2022-10-14T21:15:56.330Z,27.48
2022-10-14T21:18:23.041Z,26.01
2022-10-14T21:20:50.372Z,26.06
2022-10-14T21:23:17.802Z,26.56
2022-10-14T21:25:44.751Z,26.73
2022-10-14T21:28:11.318Z,27.34
2022-10-14T21:30:41.474Z,27.23
2022-10-14T21:33:07.971Z,27.46
2022-10-14T21:35:34.531Z,26.81
2022-10-14T21:38:01.115Z,26.59
2022-10-14T21:40:27.653Z,26.96
2022-10-14T21:42:54.227Z,27.17
2022-10-14T21:45:21.020Z,27.47
2022-10-14T21:47:47.632Z,27.91
2022-10-14T21:50:14.302Z,27.70
2022-10-14T21:52:41.419Z,27.34
2022-10-14T21:55:08.442Z,27.63
2022-10-14T21:57:35.001Z,27.81
2022-10-14T22:00:01.585Z,27.46
2022-10-14T22:02:28.148Z,27.21
2022-10-14T22:04:54.678Z,27.47
2022-10-14T22:07:21.438Z,27.76
2022-10-14T22:09:48.589Z,27.56
2022-10-14T22:12:16.577Z,27.71
2022-10-14T22:14:43.203Z,27.77
2022-10-14T22:17:09.848Z,28.07
2022-10-14T22:19:36.377Z,28.18
2022-10-14T22:22:03.991Z,27.90
2022-10-14T22:24:31.311Z,27.86
2022-10-14T22:26:57.826Z,28.08
2022-10-14T22:29:25.452Z,27.94
2022-10-14T22:31:51.991Z,28.25
2022-10-14T22:34:18.570Z,28.07
2022-10-14T22:36:45.552Z,27.86
2022-10-14T22:39:16.316Z,27.43
2022-10-14T22:41:42.869Z,27.36
2022-10-14T22:44:10.083Z,27.74
2022-10-14T22:46:38.172Z,27.35
2022-10-14T22:49:05.221Z,27.53
2022-10-14T22:51:35.461Z,27.84
2022-10-14T22:54:02.650Z,26.89
2022-10-14T22:56:30.682Z,27.53
2022-10-14T22:59:09.513Z,26.97
2022-10-14T23:01:36.827Z,27.31
2022-10-14T23:04:04.344Z,27.47
2022-10-14T23:06:31.838Z,27.23
2022-10-14T23:09:00.458Z,27.30
2022-10-14T23:11:28.483Z,27.05
2022-10-14T23:13:55.624Z,26.98
2022-10-14T23:16:24.900Z,26.76
2022-10-14T23:18:52.556Z,27.47
2022-10-14T23:21:27.914Z,27.46
2022-10-14T23:23:57.085Z,27.16
2022-10-14T23:26:26.475Z,27.32
2022-10-14T23:28:55.431Z,27.05
2022-10-14T23:31:24.961Z,27.12
2022-10-14T23:33:52.375Z,26.28
2022-10-14T23:36:21.510Z,26.92
2022-10-14T23:38:48.781Z,26.77
2022-10-14T23:41:15.515Z,26.98
2022-10-14T23:43:42.854Z,27.00
2022-10-14T23:46:09.913Z,27.41
2022-10-14T23:48:37.096Z,27.47
2022-10-14T23:51:04.245Z,27.08
2022-10-14T23:53:31.331Z,27.17
2022-10-14T23:55:58.172Z,27.04
2022-10-14T23:58:28.604Z,26.82
